Time;durP1;ratioP1;P1;durP2;ratioP2;P2;SDS_P1;SDS_P2;PMS_P1;PMS_P2;Temp;Humidity;BMP_temperature;BMP_pressure;BME280_temperature;BME280_humidity;BME280_pressure;Samples;Min_cycle;Max_cycle;Signal;HPM_P1;HPM_P2
2023/12/04 00:04:07;;;;;;;15.25;8.25;;;;;;;-6.87;89.01;100556.41;10426315;28;20037;-63
2023/12/04 00:09:09;;;;;;;16.13;7.97;;;;;;;-6.95;88.42;100556.41;10429137;28;20695;-61
2023/12/04 00:14:12;;;;;;;16.08;8.25;;;;;;;-7.12;88.78;100559.09;10436428;28;20041;-61
2023/12/04 00:19:14;;;;;;;14.65;7.70;;;;;;;-7.21;89.04;100549.47;10436944;28;20094;-63
2023/12/04 00:24:16;;;;;;;12.18;6.25;;;;;;;-7.22;89.43;100547.78;10445682;28;20033;-63
2023/12/04 00:29:19;;;;;;;12.88;6.85;;;;;;;-7.12;89.26;100544.94;10434000;28;20057;-61
2023/12/04 00:34:22;;;;;;;14.88;7.80;;;;;;;-7.20;88.42;100543.13;10436122;28;20042;-62
2023/12/04 00:39:24;;;;;;;11.07;6.82;;;;;;;-7.21;89.04;100530.78;10446059;28;20049;-61
2023/12/04 00:44:27;;;;;;;12.70;6.95;;;;;;;-7.23;88.62;100522.13;10434993;28;20053;-63
2023/12/04 00:49:29;;;;;;;12.10;6.85;;;;;;;-7.45;89.04;100542.31;10434753;28;20049;-62
2023/12/04 00:54:31;;;;;;;13.07;6.85;;;;;;;-7.57;89.16;100543.66;10430073;28;20048;-62
2023/12/04 00:59:34;;;;;;;12.07;6.38;;;;;;;-7.41;89.68;100537.47;10432168;28;20029;-61
2023/12/04 01:04:40;;;;;;;13.82;6.45;;;;;;;-7.41;89.25;100543.66;10436682;28;20055;-63
2023/12/04 01:09:43;;;;;;;11.52;5.90;;;;;;;-7.37;89.43;100542.31;10439759;28;20049;-61
2023/12/04 01:14:45;;;;;;;10.93;5.95;;;;;;;-7.38;89.48;100542.47;10428217;28;20045;-61
2023/12/04 01:19:49;;;;;;;12.15;6.55;;;;;;;-7.36;89.33;100551.97;10457276;28;20037;-60
2023/12/04 01:24:52;;;;;;;13.80;6.70;;;;;;;-7.12;89.51;100535.09;10447020;28;20524;-61
2023/12/04 01:29:55;;;;;;;11.40;6.25;;;;;;;-7.08;88.58;100544.44;10453749;28;20038;-61
2023/12/04 01:34:58;;;;;;;12.10;6.07;;;;;;;-7.13;88.25;100546.75;10435169;28;20059;-61
2023/12/04 01:40:01;;;;;;;10.90;6.07;;;;;;;-7.12;88.26;100545.75;10442365;28;20038;-63
2023/12/04 01:45:05;;;;;;;11.15;6.35;;;;;;;-7.16;88.35;100541.78;10432079;28;20076;-63
2023/12/04 01:50:08;;;;;;;11.50;6.07;;;;;;;-7.24;88.29;100546.31;10441523;28;20240;-61
2023/12/04 01:55:11;;;;;;;11.00;6.13;;;;;;;-7.29;88.32;100554.78;10424102;28;20046;-62
2023/12/04 02:00:14;;;;;;;10.50;5.80;;;;;;;-7.38;88.41;100553.13;10444512;28;20390;-63
2023/12/04 02:05:17;;;;;;;9.18;5.50;;;;;;;-7.27;88.91;100552.81;10459596;28;20060;-63
2023/12/04 02:10:20;;;;;;;11.52;5.88;;;;;;;-7.36;88.88;100551.13;10442437;28;20060;-61
2023/12/04 02:15:23;;;;;;;9.02;5.18;;;;;;;-7.50;88.60;100551.78;10438984;28;20037;-61
2023/12/04 02:20:35;;;;;;;10.70;5.75;;;;;;;-7.31;88.77;100551.44;10438731;28;20045;-61
2023/12/04 02:25:37;;;;;;;8.77;4.82;;;;;;;-7.45;88.67;100555.66;10422206;28;20049;-61
2023/12/04 02:30:43;;;;;;;9.02;4.78;;;;;;;-7.31;88.66;100552.28;10431475;28;20044;-61
2023/12/04 02:35:46;;;;;;;8.38;4.80;;;;;;;-7.33;88.42;100559.63;10437021;28;20037;-61
2023/12/04 02:40:48;;;;;;;9.30;4.95;;;;;;;-7.31;88.73;100541.63;10446168;28;20067;-61
2023/12/04 02:45:51;;;;;;;10.15;5.22;;;;;;;-7.29;88.42;100549.44;10473005;28;20545;-62
2023/12/04 02:50:53;;;;;;;10.30;4.97;;;;;;;-7.25;88.00;100560.63;10450469;28;20452;-62
2023/12/04 02:55:56;;;;;;;9.90;5.25;;;;;;;-7.33;88.09;100558.78;10437481;28;20413;-62
2023/12/04 03:00:58;;;;;;;10.18;5.35;;;;;;;-7.30;87.64;100553.94;10430277;28;20129;-61
2023/12/04 03:06:00;;;;;;;7.80;4.72;;;;;;;-7.40;87.97;100558.63;10431118;28;20041;-62
2023/12/04 03:11:03;;;;;;;9.60;5.13;;;;;;;-7.31;88.48;100562.13;10424647;28;20041;-62
2023/12/04 03:16:06;;;;;;;9.57;4.60;;;;;;;-7.28;87.70;100560.97;10441186;28;20033;-62
2023/12/04 03:21:08;;;;;;;9.23;5.07;;;;;;;-7.44;87.78;100551.16;10438976;28;20509;-62
2023/12/04 03:26:10;;;;;;;8.77;4.43;;;;;;;-7.51;88.08;100547.47;10444393;28;20064;-62
2023/12/04 03:31:13;;;;;;;10.27;4.10;;;;;;;-7.55;88.32;100557.63;10441431;28;20508;-62
2023/12/04 03:36:15;;;;;;;8.50;4.93;;;;;;;-7.63;88.65;100565.63;10443373;28;20029;-62
2023/12/04 03:41:17;;;;;;;9.77;4.93;;;;;;;-7.48;89.11;100565.78;10441866;28;20697;-62
2023/12/04 03:46:20;;;;;;;8.52;4.45;;;;;;;-7.31;88.91;100570.13;10441566;28;20037;-62
2023/12/04 03:51:22;;;;;;;8.00;4.35;;;;;;;-7.40;88.29;100563.13;10442552;28;20417;-62
2023/12/04 03:56:25;;;;;;;12.80;5.38;;;;;;;-7.51;88.53;100572.28;10437103;28;20048;-62
2023/12/04 04:01:27;;;;;;;8.48;4.85;;;;;;;-7.61;88.58;100572.44;10438897;28;20048;-61
2023/12/04 04:06:29;;;;;;;10.40;5.15;;;;;;;-7.43;89.52;100574.13;10443598;28;20040;-63
2023/12/04 04:11:32;;;;;;;13.55;5.70;;;;;;;-7.39;88.63;100570.97;10439569;28;20037;-61
2023/12/04 04:16:34;;;;;;;9.18;4.20;;;;;;;-7.36;88.59;100573.28;10439882;28;20112;-63
2023/12/04 04:21:40;;;;;;;9.02;4.82;;;;;;;-7.24;88.31;100589.78;10443108;28;20037;-63
2023/12/04 04:26:42;;;;;;;8.20;5.20;;;;;;;-7.07;88.27;100580.78;10443444;28;20060;-62
2023/12/04 04:31:45;;;;;;;9.32;4.38;;;;;;;-7.03;87.81;100583.94;10442098;28;20537;-63
2023/12/04 04:36:47;;;;;;;8.50;4.30;;;;;;;-7.04;87.99;100571.59;10446661;28;20052;-61
2023/12/04 04:41:49;;;;;;;7.53;4.68;;;;;;;-7.09;87.44;100580.13;10442485;28;20053;-61
2023/12/04 04:46:52;;;;;;;10.27;5.05;;;;;;;-7.08;87.34;100589.78;10443914;28;20192;-62
2023/12/04 04:51:54;;;;;;;10.00;4.85;;;;;;;-6.96;87.58;100576.06;10443182;28;20041;-62
2023/12/04 04:56:56;;;;;;;10.75;5.20;;;;;;;-7.03;87.27;100571.44;10425373;28;20414;-61
2023/12/04 05:01:59;;;;;;;8.43;4.90;;;;;;;-7.08;87.45;100572.94;10452491;28;20037;-61
2023/12/04 05:07:01;;;;;;;9.52;4.80;;;;;;;-7.20;87.14;100569.78;10440870;28;20041;-61
2023/12/04 05:12:04;;;;;;;9.30;5.28;;;;;;;-7.29;88.04;100570.78;10434987;28;20037;-62
2023/12/04 05:17:06;;;;;;;10.05;5.80;;;;;;;-7.15;87.48;100574.59;10400860;28;20513;-62
2023/12/04 05:22:08;;;;;;;8.88;5.28;;;;;;;-7.15;87.05;100572.78;10436631;28;20421;-61
2023/12/04 05:27:11;;;;;;;10.10;5.78;;;;;;;-7.06;87.50;100579.78;10438568;28;20048;-64
2023/12/04 05:32:13;;;;;;;9.80;6.30;;;;;;;-7.09;87.78;100576.63;10433797;28;20049;-62
2023/12/04 05:37:15;;;;;;;10.52;5.88;;;;;;;-7.11;87.71;100584.78;10435673;28;20045;-62
2023/12/04 05:42:18;;;;;;;11.48;6.53;;;;;;;-7.33;87.57;100580.09;10441880;28;20049;-61
2023/12/04 05:47:20;;;;;;;10.07;6.20;;;;;;;-7.37;88.11;100574.28;10440967;28;20825;-61
2023/12/04 05:52:23;;;;;;;14.88;7.20;;;;;;;-7.32;87.98;100589.78;10439230;28;20045;-62
2023/12/04 05:57:25;;;;;;;11.80;6.57;;;;;;;-7.44;87.89;100591.13;10444614;28;20044;-62
2023/12/04 06:02:30;;;;;;;10.25;6.00;;;;;;;-7.42;87.65;100586.47;10447526;28;20029;-63
2023/12/04 06:07:32;;;;;;;10.20;6.25;;;;;;;-7.41;88.35;100588.94;10447231;28;20136;-62
2023/12/04 06:12:35;;;;;;;8.73;5.47;;;;;;;-7.40;88.00;100595.94;10447106;28;20049;-62
2023/12/04 06:17:37;;;;;;;11.13;5.75;;;;;;;-7.45;87.29;100594.78;10446922;28;20501;-62
2023/12/04 06:22:40;;;;;;;11.95;5.35;;;;;;;-7.50;87.83;100591.75;10447793;28;20042;-62
2023/12/04 06:27:43;;;;;;;10.38;5.88;;;;;;;-7.40;87.76;100595.13;10447155;28;20056;-62
2023/12/04 06:32:46;;;;;;;11.63;6.57;;;;;;;-7.37;87.88;100602.78;10447071;28;20037;-63
2023/12/04 06:37:49;;;;;;;10.02;5.28;;;;;;;-7.54;87.62;100601.09;10447224;28;20049;-61
2023/12/04 06:42:52;;;;;;;12.05;5.85;;;;;;;-7.55;88.38;100602.09;10446235;28;20045;-62
2023/12/04 06:47:54;;;;;;;13.13;6.97;;;;;;;-7.32;87.88;100609.25;10445862;28;20033;-62
2023/12/04 06:52:57;;;;;;;15.80;6.97;;;;;;;-7.32;87.76;100597.78;10446836;28;20034;-62
2023/12/04 06:58:00;;;;;;;12.57;6.53;;;;;;;-7.26;87.91;100606.94;10444857;28;20426;-62
2023/12/04 07:03:02;;;;;;;11.15;6.30;;;;;;;-7.22;87.34;100602.94;10446111;28;20048;-62
2023/12/04 07:08:05;;;;;;;12.80;6.55;;;;;;;-7.04;87.55;100606.28;10480931;28;20048;-62
2023/12/04 07:13:07;;;;;;;14.35;7.28;;;;;;;-6.99;86.68;100609.25;10453090;28;20041;-62
2023/12/04 07:18:09;;;;;;;13.68;7.40;;;;;;;-7.03;86.72;100615.94;10443896;28;20041;-63
2023/12/04 07:23:12;;;;;;;14.05;7.07;;;;;;;-7.04;86.93;100615.09;10447379;28;20045;-62
2023/12/04 07:28:15;;;;;;;13.55;6.75;;;;;;;-7.00;86.73;100618.25;10440295;28;20060;-63
2023/12/04 07:33:17;;;;;;;13.02;7.03;;;;;;;-6.87;86.38;100612.41;10449035;28;20040;-62
2023/12/04 07:38:20;;;;;;;18.95;7.55;;;;;;;-6.82;86.39;100624.25;10444748;28;20060;-62
2023/12/04 07:43:23;;;;;;;20.08;8.30;;;;;;;-6.89;86.00;100630.44;10444831;28;20056;-64
2023/12/04 07:48:25;;;;;;;25.58;9.93;;;;;;;-6.88;86.18;100621.44;10444102;28;20033;-62
2023/12/04 07:53:27;;;;;;;21.95;8.32;;;;;;;-6.83;85.95;100627.91;10443166;28;20540;-62
2023/12/04 07:58:31;;;;;;;18.33;8.55;;;;;;;-6.87;85.92;100628.44;10444379;28;20505;-62
2023/12/04 08:03:33;;;;;;;21.48;9.88;;;;;;;-6.90;86.23;100634.94;10440905;28;20513;-63
2023/12/04 08:08:36;;;;;;;25.95;10.77;;;;;;;-7.03;86.49;100637.28;10463142;28;20047;-62
2023/12/04 08:13:38;;;;;;;25.30;9.60;;;;;;;-6.94;86.85;100654.09;10486316;28;20049;-62
2023/12/04 08:18:41;;;;;;;17.45;7.05;;;;;;;-6.75;86.35;100648.44;10476169;28;20046;-62
2023/12/04 08:23:43;;;;;;;18.15;8.07;;;;;;;-6.69;85.77;100653.91;10438832;28;20535;-62
2023/12/04 08:28:46;;;;;;;18.90;8.00;;;;;;;-6.70;85.56;100654.91;10462769;28;20041;-62
2023/12/04 08:33:48;;;;;;;16.75;7.68;;;;;;;-6.61;84.97;100650.38;10484328;28;20037;-63
2023/12/04 08:38:51;;;;;;;21.83;8.68;;;;;;;-6.50;84.16;100652.72;10450199;28;20052;-64
2023/12/04 08:43:54;;;;;;;16.98;7.78;;;;;;;-6.48;84.50;100658.72;10442739;28;20053;-63
2023/12/04 08:48:57;;;;;;;13.40;6.97;;;;;;;-6.48;84.03;100655.22;10442385;28;20065;-62
2023/12/04 08:53:59;;;;;;;14.68;6.57;;;;;;;-6.44;83.47;100659.19;10442192;28;20045;-63
2023/12/04 08:59:03;;;;;;;14.38;6.63;;;;;;;-6.35;83.73;100666.19;10442140;28;20048;-63
2023/12/04 09:04:08;;;;;;;11.82;5.55;;;;;;;-6.32;82.73;100657.84;10442266;28;20509;-63
2023/12/04 09:09:11;;;;;;;11.15;6.00;;;;;;;-6.43;82.89;100656.34;10442036;28;20405;-64
2023/12/04 09:14:14;;;;;;;13.02;5.93;;;;;;;-6.43;83.27;100653.69;10442206;28;20052;-63
2023/12/04 09:19:16;;;;;;;11.55;5.70;;;;;;;-6.32;82.90;100652.50;10441759;28;20361;-63
2023/12/04 09:24:19;;;;;;;14.73;6.65;;;;;;;-6.25;82.60;100660.63;10441742;28;20037;-63
2023/12/04 09:29:23;;;;;;;11.57;5.85;;;;;;;-6.18;83.03;100659.81;10442205;28;20060;-63
2023/12/04 09:34:26;;;;;;;11.68;5.55;;;;;;;-6.10;81.85;100658.94;10447904;28;20418;-63
2023/12/04 09:39:29;;;;;;;11.57;5.78;;;;;;;-6.16;82.27;100655.13;10448419;28;20048;-62
2023/12/04 09:44:32;;;;;;;10.73;5.43;;;;;;;-6.24;82.35;100655.16;10449075;28;20046;-62
2023/12/04 09:49:34;;;;;;;11.25;5.30;;;;;;;-6.19;83.11;100659.97;10448831;28;20509;-64
2023/12/04 09:54:37;;;;;;;11.85;4.82;;;;;;;-6.18;82.63;100658.97;10447441;28;20041;-63
2023/12/04 09:59:40;;;;;;;13.18;5.57;;;;;;;-6.30;82.40;100658.50;10448973;28;20041;-64
2023/12/04 10:04:42;;;;;;;11.73;6.00;;;;;;;-6.39;83.34;100660.38;10447074;28;20038;-62
2023/12/04 10:09:45;;;;;;;13.85;6.47;;;;;;;-6.23;83.49;100669.34;10448409;28;20037;-63
2023/12/04 10:15:08;;;;;;;11.18;5.75;;;;;;;-6.16;83.81;100676.47;10462177;28;20037;-63
2023/12/04 10:20:15;;;;;;;14.80;6.15;;;;;;;-6.15;83.57;100667.47;10433289;28;20037;-64
2023/12/04 10:25:18;;;;;;;12.07;5.97;;;;;;;-6.23;83.13;100674.69;10406579;28;20525;-63
2023/12/04 10:30:28;;;;;;;18.48;7.45;;;;;;;-6.12;83.58;100675.13;10406680;28;20452;-63
2023/12/04 10:35:32;;;;;;;21.05;9.38;;;;;;;-6.15;83.53;100677.31;10420759;28;20501;-63
2023/12/04 10:40:36;;;;;;;26.10;9.73;;;;;;;-6.09;83.24;100681.97;10446887;28;20052;-63
2023/12/04 10:45:40;;;;;;;30.33;9.82;;;;;;;-6.06;83.11;100686.97;10446556;28;20049;-63
2023/12/04 10:50:47;;;;;;;26.02;9.65;;;;;;;-5.94;82.77;100687.41;10446658;28;20540;-64
2023/12/04 10:55:52;;;;;;;21.05;7.93;;;;;;;-5.88;83.16;100684.03;10446609;28;20053;-63
2023/12/04 11:00:56;;;;;;;24.98;9.02;;;;;;;-5.94;83.01;100682.91;10446566;28;20045;-63
2023/12/04 11:06:00;;;;;;;27.77;9.40;;;;;;;-5.95;82.82;100683.91;10445262;28;20052;-64
2023/12/04 11:11:09;;;;;;;20.27;8.57;;;;;;;-6.07;83.07;100685.31;10423038;28;20465;-63
2023/12/04 11:16:38;;;;;;;22.30;11.23;;;;;;;-6.11;83.56;100689.31;10408531;28;20049;-63
2023/12/04 11:21:41;;;;;;;20.73;8.30;;;;;;;-6.14;84.11;100695.84;10469157;28;20048;-64
2023/12/04 11:26:44;;;;;;;12.70;7.07;;;;;;;-6.31;84.17;100688.03;10442887;28;20433;-63
2023/12/04 11:31:47;;;;;;;12.27;6.03;;;;;;;-6.46;84.61;100698.56;10446544;28;20054;-63
2023/12/04 11:36:51;;;;;;;12.95;5.55;;;;;;;-6.52;85.05;100701.94;10445231;28;20044;-62
2023/12/04 11:41:53;;;;;;;11.10;5.88;;;;;;;-6.42;85.16;100700.75;10427579;28;20054;-65
2023/12/04 11:47:05;;;;;;;13.02;5.55;;;;;;;-6.33;84.95;100706.06;10405224;28;20547;-62
2023/12/04 11:52:09;;;;;;;12.57;6.00;;;;;;;-6.27;85.09;100698.19;10421811;28;20037;-62
2023/12/04 11:57:13;;;;;;;10.88;6.10;;;;;;;-6.25;84.91;100703.38;10416276;28;20065;-62
2023/12/04 12:02:17;;;;;;;8.10;5.28;;;;;;;-6.29;84.91;100713.56;10437626;28;20041;-66
2023/12/04 12:07:21;;;;;;;13.52;5.97;;;;;;;-6.34;84.85;100715.91;10448491;28;20041;-62
2023/12/04 12:12:26;;;;;;;13.07;6.10;;;;;;;-6.52;85.54;100713.44;10430619;28;20448;-60
2023/12/04 12:17:30;;;;;;;12.70;6.10;;;;;;;-6.56;86.23;100717.44;10413645;28;20044;-61
2023/12/04 12:22:34;;;;;;;13.10;6.30;;;;;;;-6.55;86.42;100727.13;10452773;28;20444;-63
2023/12/04 12:27:37;;;;;;;10.43;4.57;;;;;;;-6.61;86.62;100727.78;10442660;28;20049;-62
2023/12/04 12:32:41;;;;;;;13.68;6.15;;;;;;;-6.48;87.02;100725.44;10437939;28;20033;-62
2023/12/04 12:37:44;;;;;;;11.27;5.78;;;;;;;-6.48;87.30;100712.09;10444397;28;20043;-62
2023/12/04 12:42:46;;;;;;;9.50;6.32;;;;;;;-6.62;87.31;100712.78;10434083;28;20099;-64
2023/12/04 12:47:51;;;;;;;14.93;5.78;;;;;;;-6.78;87.49;100716.28;10439028;28;20048;-62
2023/12/04 12:52:54;;;;;;;9.10;4.72;;;;;;;-6.94;87.68;100712.75;10441259;28;20048;-62
2023/12/04 12:57:57;;;;;;;8.57;5.00;;;;;;;-6.88;88.96;100710.28;10439527;28;20033;-62
2023/12/04 13:03:01;;;;;;;13.35;5.43;;;;;;;-7.14;89.41;100712.25;10435391;28;20535;-63
2023/12/04 13:08:04;;;;;;;11.75;5.88;;;;;;;-7.34;89.54;100727.72;10440895;28;20037;-63
2023/12/04 13:13:11;;;;;;;12.77;5.97;;;;;;;-7.32;90.12;100734.53;10444901;28;20037;-63
2023/12/04 13:18:13;;;;;;;8.63;4.13;;;;;;;-7.08;90.88;100741.78;10443497;28;20041;-61
2023/12/04 13:23:15;;;;;;;7.40;3.85;;;;;;;-6.99;90.86;100732.78;10447157;28;20033;-61
2023/12/04 13:28:20;;;;;;;9.13;4.22;;;;;;;-6.88;91.12;100739.63;10450273;28;20037;-63
2023/12/04 13:33:23;;;;;;;8.75;4.13;;;;;;;-6.90;90.26;100735.47;10450151;28;20037;-62
2023/12/04 13:38:26;;;;;;;9.93;4.47;;;;;;;-6.94;90.63;100744.78;10449308;28;20406;-63
2023/12/04 13:48:49;;;;;;;15.57;6.57;;;;;;;-6.87;91.54;100757.31;10445484;28;20034;-62
2023/12/04 13:54:01;;;;;;;12.18;5.85;;;;;;;-6.91;90.85;100755.13;10442990;28;20037;-62
2023/12/04 13:59:06;;;;;;;9.70;5.32;;;;;;;-7.07;90.31;100745.28;10449594;28;20164;-63
2023/12/04 14:04:09;;;;;;;12.07;4.88;;;;;;;-7.33;90.47;100745.38;10449924;28;20037;-62
2023/12/04 14:09:14;;;;;;;10.77;4.43;;;;;;;-7.40;90.95;100753.19;10445955;28;20420;-63
2023/12/04 14:14:16;;;;;;;10.70;4.78;;;;;;;-7.33;91.64;100761.38;10444021;28;20421;-62
2023/12/04 14:19:21;;;;;;;13.85;6.53;;;;;;;-7.40;91.75;100771.03;10443299;28;20063;-62
2023/12/04 14:24:23;;;;;;;7.40;4.95;;;;;;;-7.34;91.65;100765.03;10476825;28;20041;-62
2023/12/04 14:29:26;;;;;;;10.43;5.40;;;;;;;-7.12;92.36;100774.25;10432122;28;20042;-61
2023/12/04 14:34:29;;;;;;;10.82;5.60;;;;;;;-7.32;92.02;100779.84;10408275;28;20138;-62
2023/12/04 14:39:32;;;;;;;13.38;5.68;;;;;;;-7.27;92.58;100781.22;10417303;28;20372;-62
2023/12/04 14:44:34;;;;;;;12.07;5.45;;;;;;;-7.25;92.18;100774.75;10433286;28;20053;-62
2023/12/04 14:49:36;;;;;;;9.30;5.07;;;;;;;-7.19;92.70;100776.75;10420229;28;20056;-62
2023/12/04 14:55:02;;;;;;;13.50;6.70;;;;;;;-7.28;92.22;100783.06;10447485;28;20052;-62
2023/12/04 15:21:03;;;;;;;16.33;5.45;;;;;;;-7.10;93.99;100783.78;10454379;28;20049;-62
2023/12/04 15:26:06;;;;;;;7.10;4.70;;;;;;;-6.96;93.70;100786.78;10405849;28;20042;-62
2023/12/04 15:31:09;;;;;;;10.48;4.80;;;;;;;-6.92;93.67;100790.81;10412386;28;20037;-61
2023/12/04 15:36:11;;;;;;;10.48;4.70;;;;;;;-6.97;93.46;100801.94;10447039;28;20029;-61
2023/12/04 15:41:16;;;;;;;5.63;3.80;;;;;;;-6.76;93.74;100794.34;10453583;28;20051;-62
2023/12/04 15:46:19;;;;;;;10.07;3.60;;;;;;;-6.71;93.56;100802.69;10439955;28;20112;-63
2023/12/04 15:51:21;;;;;;;8.32;4.28;;;;;;;-6.85;92.93;100799.81;10437177;28;20040;-63
2023/12/04 15:56:24;;;;;;;7.18;4.45;;;;;;;-6.90;93.41;100815.50;10437790;28;20033;-63
2023/12/04 16:01:27;;;;;;;9.02;4.03;;;;;;;-6.90;92.91;100810.16;10436465;28;20056;-62
2023/12/04 16:06:29;;;;;;;9.10;4.63;;;;;;;-6.80;93.57;100803.66;10431550;28;20030;-63
2023/12/04 16:11:32;;;;;;;8.88;4.10;;;;;;;-6.75;93.31;100805.84;10435086;28;20052;-63
2023/12/04 16:16:37;;;;;;;8.70;4.60;;;;;;;-6.71;92.69;100807.19;10436972;28;20044;-62
2023/12/04 16:21:39;;;;;;;8.35;4.80;;;;;;;-6.72;92.49;100814.34;10439615;28;20044;-62
2023/12/04 16:26:42;;;;;;;10.82;5.38;;;;;;;-6.75;92.62;100811.19;10436204;28;20052;-62
2023/12/04 16:31:44;;;;;;;11.88;5.65;;;;;;;-6.89;92.24;100811.81;10440167;28;20046;-62
2023/12/04 16:36:47;;;;;;;10.43;6.28;;;;;;;-6.81;91.76;100812.66;10435870;28;20049;-62
2023/12/04 16:41:49;;;;;;;13.77;7.07;;;;;;;-6.86;92.25;100812.31;10436857;28;20053;-63
2023/12/04 16:46:55;;;;;;;16.00;7.28;;;;;;;-6.94;92.34;100804.31;10438584;28;20555;-63
2023/12/04 16:51:57;;;;;;;17.02;7.90;;;;;;;-7.08;92.31;100807.63;10441375;28;20425;-63
2023/12/04 16:57:00;;;;;;;14.68;6.57;;;;;;;-7.04;93.18;100808.94;10440398;28;20065;-63
2023/12/04 17:02:05;;;;;;;12.73;6.38;;;;;;;-7.09;93.72;100806.78;10441036;28;20402;-62
2023/12/04 17:07:07;;;;;;;12.05;5.57;;;;;;;-7.11;93.59;100816.78;10439943;28;20045;-63
2023/12/04 17:12:10;;;;;;;12.65;5.18;;;;;;;-7.17;94.13;100813.91;10430921;28;20424;-62
2023/12/04 17:17:12;;;;;;;14.93;5.68;;;;;;;-7.11;93.86;100822.09;10433416;28;20042;-61
2023/12/04 17:22:14;;;;;;;13.95;5.38;;;;;;;-7.05;94.61;100823.28;10432721;28;20539;-61
2023/12/04 17:27:17;;;;;;;10.95;4.60;;;;;;;-7.13;93.83;100826.75;10428125;28;20045;-63
2023/12/04 17:32:21;;;;;;;7.75;3.83;;;;;;;-7.09;93.74;100832.63;10434251;28;20034;-62
2023/12/04 17:37:23;;;;;;;12.15;5.60;;;;;;;-7.34;94.44;100831.66;10436549;28;20041;-63
2023/12/04 17:42:26;;;;;;;9.93;5.50;;;;;;;-7.39;96.14;100832.16;10433867;28;20424;-63
2023/12/04 17:47:29;;;;;;;9.13;4.45;;;;;;;-7.51;95.67;100830.75;10430085;28;20395;-64
2023/12/04 17:52:32;;;;;;;16.58;5.85;;;;;;;-7.54;96.85;100838.25;10438604;28;20040;-63
2023/12/04 17:57:35;;;;;;;21.33;6.38;;;;;;;-7.66;97.42;100835.84;10440412;28;20037;-65
2023/12/04 18:02:38;;;;;;;14.93;5.63;;;;;;;-7.73;97.49;100848.13;10442687;28;20048;-63
2023/12/04 18:07:41;;;;;;;13.35;5.63;;;;;;;-7.71;98.01;100848.81;10439519;28;20465;-63
2023/12/04 18:12:43;;;;;;;15.10;7.32;;;;;;;-7.63;98.34;100856.88;10433489;28;20040;-63
2023/12/04 18:17:47;;;;;;;16.15;6.25;;;;;;;-7.79;98.60;100859.44;10445534;28;20041;-63
2023/12/04 18:22:49;;;;;;;11.30;5.35;;;;;;;-7.87;98.65;100853.22;10438079;28;20034;-63
2023/12/04 18:27:52;;;;;;;21.58;7.88;;;;;;;-7.89;98.71;100861.34;10440001;28;20049;-62
2023/12/04 18:32:55;;;;;;;19.02;7.60;;;;;;;-7.81;99.61;100861.41;10436640;28;20025;-63
2023/12/04 18:38:12;;;;;;;17.08;7.38;;;;;;;-7.75;99.44;100868.78;10440562;28;20041;-62
2023/12/04 18:43:14;;;;;;;12.57;5.88;;;;;;;-7.72;99.53;100863.13;10445709;28;20053;-61
2023/12/04 18:48:19;;;;;;;15.32;7.65;;;;;;;-7.80;99.48;100875.56;10437827;28;20037;-61
2023/12/04 18:53:23;;;;;;;16.83;6.40;;;;;;;-7.89;99.53;100872.00;10442366;28;20033;-61
2023/12/04 18:58:27;;;;;;;19.63;6.53;;;;;;;-7.79;99.01;100872.75;10435909;28;20037;-62
2023/12/04 19:03:30;;;;;;;19.70;7.50;;;;;;;-7.67;99.29;100874.13;10420309;28;20049;-62
2023/12/04 19:08:33;;;;;;;31.35;11.52;;;;;;;-7.61;99.44;100880.69;10436817;28;20052;-61
2023/12/04 19:13:36;;;;;;;25.13;10.73;;;;;;;-7.52;99.09;100881.56;10440907;28;20029;-62
2023/12/04 19:18:39;;;;;;;26.92;10.90;;;;;;;-7.60;98.89;100882.34;10439261;28;20065;-61
2023/12/04 19:23:41;;;;;;;28.05;10.40;;;;;;;-7.55;98.39;100888.03;10436977;28;20459;-60
2023/12/04 19:28:44;;;;;;;32.63;10.10;;;;;;;-7.35;98.24;100889.47;10432490;28;20581;-62
2023/12/04 19:33:46;;;;;;;20.70;9.95;;;;;;;-7.22;97.17;100886.38;10428871;28;20037;-62
2023/12/04 19:38:49;;;;;;;21.75;9.48;;;;;;;-7.32;96.25;100888.31;10421049;28;20037;-61
2023/12/04 19:43:51;;;;;;;22.60;10.10;;;;;;;-7.39;96.00;100911.28;10438073;28;20060;-61
2023/12/04 19:48:54;;;;;;;21.88;9.10;;;;;;;-7.39;96.12;100911.28;10435732;28;20427;-61
2023/12/04 19:53:57;;;;;;;21.25;9.32;;;;;;;-7.42;95.75;100914.28;10438589;28;20037;-61
2023/12/04 19:58:59;;;;;;;24.15;9.82;;;;;;;-7.29;95.63;100914.66;10442203;28;20634;-62
2023/12/04 20:04:02;;;;;;;27.23;9.38;;;;;;;-7.54;94.86;100918.19;10440097;28;20037;-61
2023/12/04 20:09:04;;;;;;;26.58;10.40;;;;;;;-7.62;95.98;100917.16;10426980;28;20033;-62
2023/12/04 20:14:08;;;;;;;22.67;8.90;;;;;;;-7.62;95.59;100919.00;10438339;28;20029;-63
2023/12/04 20:19:11;;;;;;;22.63;9.00;;;;;;;-7.76;95.95;100920.38;10426758;28;20069;-62
2023/12/04 20:24:14;;;;;;;21.65;9.20;;;;;;;-7.49;95.56;100916.72;10426694;28;20584;-62
2023/12/04 20:29:17;;;;;;;21.52;8.50;;;;;;;-7.62;95.04;100919.81;10428511;28;20040;-61
2023/12/04 20:34:20;;;;;;;18.13;7.65;;;;;;;-7.73;94.53;100930.72;10424962;28;20088;-61
2023/12/04 20:39:23;;;;;;;18.88;8.05;;;;;;;-7.63;94.63;100927.97;10421946;28;20048;-62
2023/12/04 20:44:25;;;;;;;23.45;8.82;;;;;;;-7.66;94.07;100926.44;10436211;28;20045;-62
2023/12/04 20:49:27;;;;;;;20.20;7.72;;;;;;;-7.78;94.14;100933.03;10437627;28;20420;-61
2023/12/04 20:54:29;;;;;;;22.35;9.35;;;;;;;-7.87;94.15;100928.63;10425350;28;20034;-61
2023/12/04 20:59:33;;;;;;;24.20;8.40;;;;;;;-7.86;93.95;100940.09;10437151;28;20052;-59
2023/12/04 21:04:35;;;;;;;21.13;8.98;;;;;;;-7.88;94.83;100945.59;10437204;28;20037;-62
2023/12/04 21:09:41;;;;;;;25.13;10.15;;;;;;;-7.71;94.43;100943.88;10437138;28;20620;-61
2023/12/04 21:14:43;;;;;;;27.15;9.57;;;;;;;-7.69;93.78;100934.75;10420689;28;20520;-61
2023/12/04 21:19:45;;;;;;;20.23;8.82;;;;;;;-7.77;93.63;100939.19;10440391;28;20068;-61
2023/12/04 21:24:49;;;;;;;22.25;8.32;;;;;;;-7.87;93.00;100939.25;10440143;28;20046;-62
2023/12/04 21:29:52;;;;;;;21.63;8.35;;;;;;;-8.03;93.05;100945.28;10448511;28;20053;-60
2023/12/04 21:34:55;;;;;;;18.05;7.85;;;;;;;-8.03;93.49;100953.28;10449531;28;20044;-60
2023/12/04 21:39:58;;;;;;;17.90;7.25;;;;;;;-7.95;93.90;100960.53;10435171;28;20046;-61
2023/12/04 21:45:00;;;;;;;20.98;7.88;;;;;;;-7.98;94.02;100968.81;10445634;28;20057;-61
2023/12/04 21:50:04;;;;;;;19.08;8.45;;;;;;;-8.02;94.51;100967.44;10441876;28;20029;-62
2023/12/04 21:55:08;;;;;;;18.50;7.70;;;;;;;-8.09;94.33;100974.38;10444427;28;20030;-61
2023/12/04 22:00:11;;;;;;;18.48;8.70;;;;;;;-8.07;94.02;100975.88;10445546;28;20045;-62
2023/12/04 22:05:13;;;;;;;17.92;7.95;;;;;;;-8.14;93.67;100981.97;10443083;28;20052;-61
2023/12/04 22:10:15;;;;;;;21.58;8.07;;;;;;;-8.08;94.08;100968.88;10439809;28;20041;-61
2023/12/04 22:15:18;;;;;;;19.58;8.30;;;;;;;-8.00;93.81;100981.41;10446404;28;20052;-62
2023/12/04 22:20:22;;;;;;;22.20;8.52;;;;;;;-8.08;93.56;100982.19;10440418;28;20559;-61
2023/12/04 22:25:24;;;;;;;19.95;8.43;;;;;;;-8.07;93.30;100986.53;10443973;28;20493;-62
2023/12/04 22:30:27;;;;;;;19.70;8.10;;;;;;;-8.08;92.54;100986.69;10440038;28;20030;-61
2023/12/04 22:35:30;;;;;;;20.67;8.23;;;;;;;-8.07;93.13;100991.84;10443391;28;20033;-60
2023/12/04 22:40:32;;;;;;;15.70;7.13;;;;;;;-8.02;92.56;100988.72;10439983;28;20041;-61
2023/12/04 22:45:35;;;;;;;19.95;8.65;;;;;;;-8.02;92.74;100997.56;10439505;28;20416;-63
2023/12/04 22:50:37;;;;;;;20.20;8.18;;;;;;;-7.96;91.87;100993.47;10430542;28;20137;-61
2023/12/04 22:55:40;;;;;;;22.08;8.20;;;;;;;-7.94;92.53;100996.81;10443839;28;20140;-62
2023/12/04 23:00:42;;;;;;;21.63;9.02;;;;;;;-8.00;92.62;101006.22;10422815;28;20049;-62
2023/12/04 23:05:45;;;;;;;22.92;8.85;;;;;;;-7.90;92.31;100999.00;10441002;28;20045;-61
2023/12/04 23:10:52;;;;;;;16.80;7.60;;;;;;;-7.95;92.27;100993.31;10433348;28;20042;-62
2023/12/04 23:15:55;;;;;;;14.05;7.13;;;;;;;-7.95;91.66;101003.13;10404655;28;20453;-61
2023/12/04 23:20:58;;;;;;;18.40;8.30;;;;;;;-8.13;92.53;100996.97;10444009;28;20069;-61
2023/12/04 23:26:02;;;;;;;15.82;6.80;;;;;;;-7.99;92.85;100999.91;10439962;28;20033;-62